createdAt,value
2022-12-15T00:00:10.528Z,30.50
2022-12-15T00:02:56.233Z,29.93
2022-12-15T00:05:41.790Z,29.40
2022-12-15T00:08:30.756Z,29.57
2022-12-15T00:11:16.277Z,31.67
2022-12-15T00:14:02.636Z,29.80
2022-12-15T00:16:48.015Z,29.73
2022-12-15T00:19:33.365Z,29.03
2022-12-15T00:22:18.873Z,29.63
2022-12-15T00:25:04.383Z,30.43
2022-12-15T00:27:50.033Z,30.43
2022-12-15T00:30:35.512Z,30.30
2022-12-15T00:33:27.601Z,30.63
2022-12-15T00:36:13.330Z,30.00
2022-12-15T00:38:46.352Z,27.37
2022-12-15T00:41:15.824Z,30.97
2022-12-15T00:43:43.386Z,29.80
2022-12-15T00:46:28.994Z,30.47
2022-12-15T00:48:55.905Z,29.57
2022-12-15T00:51:22.824Z,30.80
2022-12-15T00:54:10.776Z,29.50
2022-12-15T00:57:00.083Z,29.80
2022-12-15T00:59:45.156Z,29.07
2022-12-15T01:02:30.661Z,29.67
2022-12-15T01:05:16.265Z,30.07
2022-12-15T01:08:01.531Z,28.90
2022-12-15T01:10:46.869Z,31.90
2022-12-15T01:13:32.831Z,29.77
2022-12-15T01:16:18.489Z,30.37
2022-12-15T01:19:04.098Z,29.83
2022-12-15T01:21:32.493Z,30.33
2022-12-15T01:23:59.453Z,30.90
2022-12-15T01:26:26.246Z,29.90
2022-12-15T01:28:53.120Z,29.40
2022-12-15T01:31:19.976Z,31.23
2022-12-15T01:33:47.014Z,29.73
2022-12-15T01:36:14.354Z,29.23
2022-12-15T01:38:41.176Z,35.40
2022-12-15T01:41:12.055Z,30.73
2022-12-15T01:43:40.414Z,27.97
2022-12-15T01:46:12.728Z,31.53
2022-12-15T01:48:42.983Z,30.37
2022-12-15T01:51:15.713Z,30.60
2022-12-15T01:54:11.730Z,29.73
2022-12-15T01:56:44.079Z,31.03
2022-12-15T01:59:15.605Z,31.07
2022-12-15T02:01:42.845Z,31.07
2022-12-15T02:04:09.933Z,30.13
2022-12-15T02:06:37.112Z,30.70
2022-12-15T02:09:05.066Z,31.83
2022-12-15T02:12:05.180Z,31.63
2022-12-15T02:14:41.053Z,30.70
2022-12-15T02:17:10.525Z,32.13
2022-12-15T02:20:08.681Z,31.20
2022-12-15T02:22:35.394Z,30.50
2022-12-15T02:25:32.011Z,31.47
2022-12-15T02:28:08.540Z,30.53
2022-12-15T02:30:42.750Z,32.07
2022-12-15T02:33:20.134Z,31.30
2022-12-15T02:36:13.258Z,30.10
2022-12-15T02:38:41.626Z,32.13
2022-12-15T02:41:40.675Z,32.40
2022-12-15T02:44:17.896Z,31.73
2022-12-15T02:46:56.783Z,32.23
2022-12-15T02:49:50.207Z,31.53
2022-12-15T02:52:22.941Z,30.87
2022-12-15T02:55:17.121Z,32.33
2022-12-15T02:58:00.914Z,29.73
2022-12-15T03:00:30.455Z,30.97
2022-12-15T03:02:57.497Z,30.77
2022-12-15T03:05:27.574Z,31.70
2022-12-15T03:07:54.969Z,31.00
2022-12-15T03:10:24.578Z,32.03
2022-12-15T03:12:52.200Z,30.97
2022-12-15T03:15:19.140Z,33.03
2022-12-15T03:17:46.049Z,32.10
2022-12-15T03:20:13.237Z,32.90
2022-12-15T03:22:40.268Z,32.23
2022-12-15T03:25:07.416Z,33.30
2022-12-15T03:27:38.063Z,31.37
2022-12-15T03:30:06.133Z,30.83
2022-12-15T03:32:32.939Z,31.10
2022-12-15T03:35:01.135Z,29.27
2022-12-15T03:37:28.142Z,31.97
2022-12-15T03:39:54.921Z,30.77
2022-12-15T03:42:41.794Z,31.20
2022-12-15T03:45:09.308Z,32.53
2022-12-15T03:47:38.847Z,31.80
2022-12-15T03:50:06.105Z,32.03
2022-12-15T03:52:32.904Z,29.97
2022-12-15T03:54:59.717Z,30.23
2022-12-15T03:57:26.496Z,30.40
2022-12-15T03:59:53.352Z,32.17
2022-12-15T04:02:20.277Z,29.03
2022-12-15T04:04:48.618Z,29.93
2022-12-15T04:07:15.569Z,34.23
2022-12-15T04:09:42.411Z,30.90
2022-12-15T04:12:11.348Z,31.47
2022-12-15T04:14:42.601Z,32.50
2022-12-15T04:17:15.197Z,30.53
2022-12-15T04:20:17.319Z,29.30
2022-12-15T04:22:46.499Z,31.10
2022-12-15T04:25:35.253Z,29.43
2022-12-15T04:28:21.274Z,28.83
2022-12-15T04:31:30.065Z,31.10
2022-12-15T04:34:22.012Z,30.60
2022-12-15T04:37:12.638Z,28.73
2022-12-15T04:40:08.890Z,30.70
2022-12-15T04:42:56.474Z,31.93
2022-12-15T04:45:43.855Z,31.97
2022-12-15T04:48:29.777Z,30.53
2022-12-15T04:51:15.315Z,30.03
2022-12-15T04:54:02.661Z,30.00
2022-12-15T04:56:49.996Z,29.77
2022-12-15T04:59:35.789Z,31.20
2022-12-15T05:02:21.157Z,31.37
2022-12-15T05:05:06.526Z,36.73
2022-12-15T05:07:51.842Z,33.23
2022-12-15T05:10:37.219Z,34.80
2022-12-15T05:13:26.187Z,29.23
2022-12-15T05:16:20.730Z,32.17
2022-12-15T05:19:06.090Z,29.53
2022-12-15T05:21:51.546Z,31.27
2022-12-15T05:24:36.978Z,31.73
2022-12-15T05:27:22.374Z,30.97
2022-12-15T05:30:08.142Z,29.93
2022-12-15T05:32:34.943Z,32.10
2022-12-15T05:35:01.962Z,30.70
2022-12-15T05:37:28.927Z,30.93
2022-12-15T05:39:55.769Z,29.63
2022-12-15T05:42:22.778Z,30.80
2022-12-15T05:44:49.851Z,30.57
2022-12-15T05:47:18.626Z,30.97
2022-12-15T05:49:45.413Z,31.33
2022-12-15T05:52:12.388Z,32.27
2022-12-15T05:54:39.314Z,32.80
2022-12-15T05:57:06.892Z,31.70
2022-12-15T05:59:33.872Z,32.77
2022-12-15T06:02:00.813Z,31.80
2022-12-15T06:04:27.956Z,32.97
2022-12-15T06:06:54.996Z,33.43
2022-12-15T06:09:21.876Z,32.20
2022-12-15T06:11:48.697Z,33.50
2022-12-15T06:14:15.593Z,33.17
2022-12-15T06:16:51.158Z,34.13
2022-12-15T06:19:19.489Z,32.87
2022-12-15T06:21:46.328Z,31.07
2022-12-15T06:24:13.143Z,34.33
2022-12-15T06:26:40.490Z,33.80
2022-12-15T06:29:13.172Z,33.10
2022-12-15T06:31:41.294Z,33.63
2022-12-15T06:34:11.232Z,34.90
2022-12-15T06:36:39.072Z,32.53
2022-12-15T06:39:09.895Z,32.33
2022-12-15T06:41:37.023Z,32.60
2022-12-15T06:44:04.269Z,33.10
2022-12-15T06:46:33.014Z,32.53
2022-12-15T06:48:59.958Z,29.97
2022-12-15T06:51:27.718Z,30.07
2022-12-15T06:53:55.530Z,32.60
2022-12-15T06:56:34.018Z,33.40
2022-12-15T06:59:02.232Z,31.27
2022-12-15T07:01:29.541Z,32.77
2022-12-15T07:03:56.852Z,34.67
2022-12-15T07:06:24.006Z,32.20
2022-12-15T07:08:53.128Z,35.23
2022-12-15T07:11:21.219Z,33.00
2022-12-15T07:13:54.564Z,34.13
2022-12-15T07:16:31.560Z,36.07
2022-12-15T07:19:00.741Z,34.87
2022-12-15T07:21:30.300Z,36.40
2022-12-15T07:23:58.045Z,36.03
2022-12-15T07:26:25.874Z,34.30
2022-12-15T07:28:54.004Z,34.63
2022-12-15T07:31:21.950Z,35.13
2022-12-15T07:33:49.216Z,36.37
2022-12-15T07:36:16.510Z,34.93
2022-12-15T07:38:45.487Z,33.93
2022-12-15T07:41:17.253Z,36.17
2022-12-15T07:43:45.463Z,33.47
2022-12-15T07:46:12.299Z,33.50
2022-12-15T07:48:39.409Z,33.17
2022-12-15T07:51:12.347Z,34.23
2022-12-15T07:53:44.236Z,35.17
2022-12-15T07:56:11.231Z,33.27
2022-12-15T07:58:38.843Z,35.63
2022-12-15T08:01:08.151Z,33.90
2022-12-15T08:03:36.726Z,35.20
2022-12-15T08:06:12.809Z,33.57
2022-12-15T08:08:40.458Z,35.40
2022-12-15T08:11:11.658Z,35.03
2022-12-15T08:16:29.497Z,37.70
2022-12-15T08:18:59.591Z,35.10
2022-12-15T08:21:26.448Z,35.23
2022-12-15T08:23:53.446Z,34.23
2022-12-15T08:26:23.766Z,35.57
2022-12-15T08:28:53.817Z,34.50
2022-12-15T08:31:23.238Z,33.30
2022-12-15T08:33:51.113Z,31.83
2022-12-15T08:36:19.210Z,33.57
2022-12-15T08:38:47.441Z,32.83
2022-12-15T08:41:20.064Z,37.60
2022-12-15T08:43:49.396Z,35.00
2022-12-15T08:46:17.608Z,34.73
2022-12-15T08:48:45.189Z,32.30
2022-12-15T08:51:12.208Z,31.20
2022-12-15T08:53:51.353Z,31.10
2022-12-15T08:56:22.379Z,31.37
2022-12-15T08:58:51.214Z,33.40
2022-12-15T09:01:23.695Z,30.73
2022-12-15T09:03:53.966Z,28.20
2022-12-15T09:06:32.961Z,29.63
2022-12-15T09:09:02.749Z,29.70
2022-12-15T09:11:30.621Z,32.80
2022-12-15T09:13:58.357Z,30.07
2022-12-15T09:16:27.858Z,29.80
2022-12-15T09:18:57.131Z,28.93
2022-12-15T09:21:26.757Z,27.70
2022-12-15T09:23:57.786Z,31.17
2022-12-15T09:26:24.566Z,30.57
2022-12-15T09:28:51.850Z,30.40
2022-12-15T09:31:22.215Z,31.77
2022-12-15T09:33:53.976Z,32.40
2022-12-15T09:36:21.364Z,31.03
2022-12-15T09:38:49.085Z,30.77
2022-12-15T09:41:15.772Z,32.47
2022-12-15T09:43:50.784Z,32.17
2022-12-15T09:46:42.744Z,32.87
2022-12-15T09:49:22.848Z,31.63
2022-12-15T09:52:03.457Z,34.87
2022-12-15T09:54:34.689Z,31.53
2022-12-15T09:57:07.981Z,33.63
2022-12-15T09:59:40.609Z,32.40
2022-12-15T10:02:26.215Z,32.53
2022-12-15T10:04:56.113Z,32.80
2022-12-15T10:07:31.989Z,32.47
2022-12-15T10:09:58.945Z,31.27
2022-12-15T10:12:32.925Z,31.00
2022-12-15T10:15:24.821Z,30.07
2022-12-15T10:18:06.541Z,32.00
2022-12-15T10:20:33.621Z,31.67
2022-12-15T10:23:11.943Z,30.00
2022-12-15T10:25:39.827Z,29.70
2022-12-15T10:28:36.886Z,31.77
2022-12-15T10:31:06.900Z,30.63
2022-12-15T10:33:47.081Z,33.87
2022-12-15T10:36:20.189Z,31.70
2022-12-15T10:38:50.585Z,31.37
2022-12-15T10:41:27.092Z,32.90
2022-12-15T10:43:54.772Z,31.93
2022-12-15T10:46:29.867Z,30.83
2022-12-15T10:49:23.566Z,31.47
2022-12-15T10:52:00.237Z,32.50
2022-12-15T10:54:43.555Z,32.03
2022-12-15T10:57:36.813Z,35.97
2022-12-15T11:00:15.779Z,31.80
2022-12-15T11:02:43.121Z,36.10
2022-12-15T11:05:15.803Z,34.10
2022-12-15T11:07:51.979Z,33.80
2022-12-15T11:10:23.787Z,32.57
2022-12-15T11:13:14.234Z,34.53
2022-12-15T11:15:45.498Z,33.40
2022-12-15T11:18:19.911Z,33.40
2022-12-15T11:21:01.314Z,37.60
2022-12-15T11:23:46.787Z,33.43
2022-12-15T11:26:24.666Z,34.90
2022-12-15T11:29:00.790Z,34.03
2022-12-15T11:31:36.942Z,35.13
2022-12-15T11:34:10.684Z,34.53
2022-12-15T11:37:05.169Z,34.13
2022-12-15T11:39:40.216Z,31.77
2022-12-15T11:42:52.781Z,33.33
2022-12-15T11:45:34.693Z,34.63
2022-12-15T11:48:20.930Z,34.17
2022-12-15T11:51:11.976Z,34.97
2022-12-15T11:54:00.543Z,35.17
2022-12-15T11:56:39.285Z,34.40
2022-12-15T11:59:24.283Z,34.23
2022-12-15T12:02:03.195Z,33.47
2022-12-15T12:05:01.837Z,34.10
2022-12-15T12:07:44.664Z,32.90
2022-12-15T12:10:21.585Z,33.80
2022-12-15T12:13:25.927Z,33.97
2022-12-15T12:16:09.297Z,31.20
2022-12-15T12:18:52.605Z,31.90
2022-12-15T12:21:26.788Z,33.20
2022-12-15T12:23:56.805Z,31.97
2022-12-15T12:26:38.843Z,34.63
2022-12-15T12:29:25.501Z,33.07
2022-12-15T12:32:04.511Z,33.33
2022-12-15T12:35:32.126Z,31.47
2022-12-15T12:38:07.453Z,32.77
2022-12-15T12:40:40.383Z,32.23
2022-12-15T12:46:01.473Z,33.87
2022-12-15T12:48:40.029Z,32.03
2022-12-15T12:51:12.760Z,31.83
2022-12-15T12:53:39.759Z,32.37
2022-12-15T12:56:06.818Z,34.33
2022-12-15T12:58:36.335Z,34.33
2022-12-15T13:01:17.237Z,32.30
2022-12-15T13:03:44.696Z,33.27
2022-12-15T13:06:42.229Z,33.93
2022-12-15T13:09:19.001Z,33.83
2022-12-15T13:11:49.199Z,33.67
2022-12-15T13:14:26.520Z,34.10
2022-12-15T13:17:27.639Z,33.70
2022-12-15T13:19:57.846Z,36.33
2022-12-15T13:22:40.102Z,34.77
2022-12-15T13:25:33.115Z,36.53
2022-12-15T13:28:02.503Z,35.97
2022-12-15T13:30:29.440Z,35.87
2022-12-15T13:33:16.829Z,35.23
2022-12-15T13:35:43.754Z,36.07
2022-12-15T13:38:19.896Z,34.43
2022-12-15T13:40:50.941Z,34.87
2022-12-15T13:43:26.900Z,34.53
2022-12-15T13:46:03.308Z,35.47
2022-12-15T13:48:46.547Z,34.37
2022-12-15T13:51:26.017Z,35.40
2022-12-15T13:54:11.671Z,34.17
2022-12-15T13:56:59.741Z,35.40
2022-12-15T13:59:50.597Z,34.13
2022-12-15T14:02:33.021Z,34.27
2022-12-15T14:05:15.093Z,33.70
2022-12-15T14:07:54.195Z,33.97
2022-12-15T14:10:49.103Z,33.53
2022-12-15T14:13:34.113Z,35.07
2022-12-15T14:16:17.707Z,35.53
2022-12-15T14:18:45.493Z,36.27
2022-12-15T14:21:30.426Z,35.27
2022-12-15T14:24:36.985Z,36.40
2022-12-15T14:26:48.633Z,35.73
2022-12-15T14:29:17.674Z,36.63
2022-12-15T14:31:51.913Z,35.03
2022-12-15T14:34:27.084Z,35.17
2022-12-15T14:36:57.384Z,35.27
2022-12-15T14:39:46.209Z,35.53
2022-12-15T14:42:23.916Z,37.87
2022-12-15T14:44:54.965Z,38.33
2022-12-15T14:47:33.557Z,39.10
2022-12-15T14:50:02.628Z,41.20
2022-12-15T14:52:38.958Z,38.80
2022-12-15T14:55:21.254Z,42.87
2022-12-15T14:57:51.979Z,39.90
2022-12-15T15:00:37.347Z,39.13
2022-12-15T15:03:15.818Z,33.57
2022-12-15T15:03:20.031Z,39.00
2022-12-15T15:05:58.850Z,38.70
2022-12-15T15:08:33.501Z,36.50
2022-12-15T15:11:35.673Z,37.60
2022-12-15T15:14:12.283Z,36.03
2022-12-15T15:16:39.192Z,37.17
2022-12-15T15:19:06.478Z,36.23
2022-12-15T15:21:37.089Z,34.83
2022-12-15T15:24:32.116Z,37.90
2022-12-15T15:27:39.994Z,35.27
2022-12-15T15:30:16.817Z,36.43
2022-12-15T15:32:58.107Z,36.40
2022-12-15T15:35:30.776Z,35.13
2022-12-15T15:38:04.177Z,35.20
2022-12-15T15:40:31.153Z,34.20
2022-12-15T15:42:57.965Z,36.93
2022-12-15T15:45:25.603Z,37.37
2022-12-15T15:47:56.137Z,39.03
2022-12-15T15:50:29.715Z,34.57
2022-12-15T15:52:57.418Z,37.87
2022-12-15T15:55:33.708Z,37.57
2022-12-15T15:58:10.932Z,39.70
2022-12-15T16:00:40.660Z,39.37
2022-12-15T16:03:08.552Z,37.20
2022-12-15T16:05:35.946Z,36.80
2022-12-15T16:08:03.832Z,39.27
2022-12-15T16:10:30.741Z,36.67
2022-12-15T16:13:01.230Z,38.57
2022-12-15T16:15:31.602Z,39.33
2022-12-15T16:17:59.433Z,37.20
2022-12-15T16:20:29.078Z,38.60
2022-12-15T16:23:02.399Z,39.33
2022-12-15T16:25:46.628Z,38.70
2022-12-15T16:28:20.475Z,40.27
2022-12-15T16:30:47.981Z,38.00
2022-12-15T16:33:15.131Z,39.63
2022-12-15T16:35:43.611Z,38.77
2022-12-15T16:38:19.464Z,38.73
2022-12-15T16:40:46.304Z,44.57
2022-12-15T16:43:17.044Z,42.63
2022-12-15T16:45:49.317Z,42.17
2022-12-15T16:48:16.578Z,41.00
2022-12-15T16:50:46.103Z,42.13
2022-12-15T16:53:25.814Z,39.57
2022-12-15T16:55:55.334Z,37.50
2022-12-15T16:58:23.221Z,39.37
2022-12-15T17:00:50.646Z,39.50
2022-12-15T17:03:20.233Z,38.30
2022-12-15T17:05:52.086Z,39.10
2022-12-15T17:08:23.567Z,41.83
2022-12-15T17:10:51.031Z,37.57
2022-12-15T17:13:45.406Z,38.70
2022-12-15T17:16:15.959Z,40.10
2022-12-15T17:18:44.574Z,41.23
2022-12-15T17:21:18.804Z,40.50
2022-12-15T17:23:49.083Z,40.13
2022-12-15T17:26:31.455Z,39.20
2022-12-15T17:29:08.835Z,40.93
2022-12-15T17:31:36.387Z,41.60
2022-12-15T17:34:30.199Z,40.17
2022-12-15T17:36:59.347Z,39.23
2022-12-15T17:39:27.432Z,40.70
2022-12-15T17:42:02.594Z,41.20
2022-12-15T17:44:38.362Z,42.77
2022-12-15T17:47:07.722Z,39.97
2022-12-15T17:49:37.732Z,40.30
2022-12-15T17:52:26.165Z,41.37
2022-12-15T17:54:53.657Z,40.80
2022-12-15T17:57:20.755Z,41.27
2022-12-15T17:59:48.101Z,39.93
2022-12-15T18:02:15.217Z,42.87
2022-12-15T18:04:42.988Z,41.90
2022-12-15T18:07:21.320Z,41.00
2022-12-15T18:09:49.755Z,44.73
2022-12-15T18:12:19.216Z,41.50
2022-12-15T18:14:46.078Z,44.40
2022-12-15T18:17:12.863Z,40.77
2022-12-15T18:19:40.153Z,41.50
2022-12-15T18:22:17.055Z,41.43
2022-12-15T18:24:43.865Z,42.90
2022-12-15T18:27:23.549Z,42.13
2022-12-15T18:29:50.734Z,45.43
2022-12-15T18:32:18.129Z,45.70
2022-12-15T18:34:45.035Z,45.67
2022-12-15T18:37:20.275Z,46.03
2022-12-15T18:39:47.756Z,41.47
2022-12-15T18:42:23.584Z,44.57
2022-12-15T18:44:53.652Z,44.63
2022-12-15T18:47:23.289Z,44.23
2022-12-15T18:49:50.427Z,43.17
2022-12-15T18:52:19.977Z,42.07
2022-12-15T18:54:51.270Z,43.27
2022-12-15T18:57:37.983Z,44.93
2022-12-15T19:00:14.079Z,44.27
2022-12-15T19:02:41.807Z,45.83
2022-12-15T19:05:27.607Z,45.87
2022-12-15T19:07:57.583Z,53.00
2022-12-15T19:10:25.641Z,48.07
2022-12-15T19:12:56.924Z,45.63
2022-12-15T19:15:25.464Z,44.80
2022-12-15T19:18:10.771Z,46.87
2022-12-15T19:20:56.228Z,43.87
2022-12-15T19:23:23.454Z,44.77
2022-12-15T19:25:52.036Z,45.37
2022-12-15T19:28:21.582Z,45.20
2022-12-15T19:30:48.820Z,44.67
2022-12-15T19:33:16.900Z,43.13
2022-12-15T19:35:46.934Z,43.03
2022-12-15T19:38:21.014Z,43.97
2022-12-15T19:40:49.036Z,43.77
2022-12-15T19:43:19.880Z,42.37
2022-12-15T19:45:46.883Z,43.37
2022-12-15T19:48:15.016Z,48.40
2022-12-15T19:50:45.394Z,44.97
2022-12-15T19:53:17.479Z,39.77
2022-12-15T19:55:44.765Z,42.77
2022-12-15T19:58:30.817Z,43.87
2022-12-15T20:01:05.810Z,45.87
2022-12-15T20:03:34.150Z,44.60
2022-12-15T20:06:02.854Z,46.67
2022-12-15T20:08:42.614Z,46.97
2022-12-15T20:11:35.716Z,46.57
2022-12-15T20:14:08.641Z,44.00
2022-12-15T20:16:35.671Z,44.83
2022-12-15T20:19:02.463Z,44.70
2022-12-15T20:21:32.864Z,44.43
2022-12-15T20:24:05.335Z,43.93
2022-12-15T20:26:32.341Z,42.97
2022-12-15T20:28:59.432Z,44.27
2022-12-15T20:31:26.758Z,43.83
2022-12-15T20:33:54.068Z,43.67
2022-12-15T20:36:30.508Z,42.60
2022-12-15T20:38:57.740Z,42.27
2022-12-15T20:41:27.721Z,42.23
2022-12-15T20:43:55.442Z,43.23
2022-12-15T20:46:32.843Z,44.30
2022-12-15T20:48:59.972Z,43.80
2022-12-15T20:51:27.938Z,43.97
2022-12-15T20:53:57.135Z,44.43
2022-12-15T20:56:24.405Z,45.57
2022-12-15T20:58:55.847Z,46.67
2022-12-15T21:01:32.900Z,48.20
2022-12-15T21:04:01.892Z,46.77
2022-12-15T21:06:29.244Z,43.23
2022-12-15T21:08:56.731Z,43.07
2022-12-15T21:11:27.437Z,46.23
2022-12-15T21:13:56.849Z,44.77
2022-12-15T21:16:29.088Z,46.27
2022-12-15T21:19:20.546Z,42.47
2022-12-15T21:21:49.530Z,46.70
2022-12-15T21:24:24.991Z,47.60
2022-12-15T21:26:52.254Z,48.20
2022-12-15T21:29:22.467Z,44.43
2022-12-15T21:31:49.650Z,46.43
2022-12-15T21:34:17.009Z,45.07
2022-12-15T21:36:50.023Z,47.53
2022-12-15T21:39:30.078Z,49.50
2022-12-15T21:42:03.637Z,45.87
2022-12-15T21:44:30.552Z,47.77
2022-12-15T21:46:57.827Z,47.90
2022-12-15T21:49:25.552Z,48.50
2022-12-15T21:51:59.785Z,48.50
2022-12-15T21:54:31.766Z,49.33
2022-12-15T21:57:02.726Z,46.97
2022-12-15T21:59:31.781Z,45.17
2022-12-15T22:02:00.477Z,47.63
2022-12-15T22:04:31.253Z,46.57
2022-12-15T22:06:58.165Z,47.43
2022-12-15T22:09:25.001Z,45.87
2022-12-15T22:11:54.255Z,46.30
2022-12-15T22:14:31.947Z,49.03
2022-12-15T22:17:00.815Z,50.37
2022-12-15T22:19:28.352Z,47.57
2022-12-15T22:21:57.844Z,49.07
2022-12-15T22:24:24.614Z,49.27
2022-12-15T22:26:51.594Z,47.37
2022-12-15T22:29:21.237Z,46.93
2022-12-15T22:31:50.268Z,48.07
2022-12-15T22:34:19.509Z,51.67
2022-12-15T22:36:46.759Z,49.13
2022-12-15T22:39:15.016Z,49.13
2022-12-15T22:41:48.096Z,47.93
2022-12-15T22:44:23.760Z,45.60
2022-12-15T22:46:52.370Z,44.97
2022-12-15T22:49:24.621Z,45.80
2022-12-15T22:51:51.730Z,46.47
2022-12-15T22:54:19.562Z,49.23
2022-12-15T22:56:49.775Z,46.03
2022-12-15T22:59:28.803Z,46.73
2022-12-15T23:01:56.046Z,45.60
2022-12-15T23:04:23.803Z,46.93
2022-12-15T23:06:50.870Z,44.07
2022-12-15T23:09:18.914Z,46.67
2022-12-15T23:11:45.747Z,45.97
2022-12-15T23:14:15.312Z,45.47
2022-12-15T23:16:43.392Z,45.70
2022-12-15T23:19:23.584Z,44.40
2022-12-15T23:21:51.563Z,42.57
2022-12-15T23:24:18.946Z,43.43
2022-12-15T23:26:45.786Z,43.93
2022-12-15T23:29:12.997Z,45.90
2022-12-15T23:31:39.991Z,42.60
2022-12-15T23:34:06.993Z,43.13
2022-12-15T23:36:33.825Z,42.87
2022-12-15T23:39:00.640Z,43.33
2022-12-15T23:41:29.328Z,42.10
2022-12-15T23:43:59.188Z,41.40
2022-12-15T23:46:25.997Z,42.40
2022-12-15T23:48:52.982Z,42.13
2022-12-15T23:51:21.835Z,41.73
2022-12-15T23:53:48.971Z,40.70
2022-12-15T23:56:18.801Z,40.83
2022-12-15T23:58:47.232Z,40.60
